Time;durP1;ratioP1;P1;durP2;ratioP2;P2;SDS_P1;SDS_P2;PMS_P1;PMS_P2;Temp;Humidity;BMP_temperature;BMP_pressure;BME280_temperature;BME280_humidity;BME280_pressure;Samples;Min_cycle;Max_cycle;Signal;HPM_P1;HPM_P2
2020/12/29 00:01:42;;;;;;;0.00;0.00;;;3.50;99.90;;;;;;5052149;28;20037;-87
2020/12/29 00:04:10;;;;;;;0.10;0.10;;;3.50;99.90;;;;;;5071229;28;20044;-87
2020/12/29 00:06:53;;;;;;;0.00;0.00;;;3.50;99.90;;;;;;5071201;28;20044;-86
2020/12/29 00:09:21;;;;;;;0.00;0.00;;;3.40;99.90;;;;;;5071124;28;20052;-87
2020/12/29 00:11:48;;;;;;;1.48;1.38;;;3.40;99.90;;;;;;5054182;28;20037;-87
2020/12/29 00:14:15;;;;;;;2.35;2.25;;;3.40;99.90;;;;;;5070671;28;20044;-87
2020/12/29 00:16:41;;;;;;;0.00;0.00;;;3.40;99.90;;;;;;5087078;28;20119;-86
2020/12/29 00:19:10;;;;;;;0.00;0.00;;;3.40;99.90;;;;;;5054338;28;20431;-86
2020/12/29 00:21:36;;;;;;;0.55;0.55;;;3.30;99.90;;;;;;5070930;28;20136;-87
2020/12/29 00:24:02;;;;;;;0.00;0.00;;;3.30;99.90;;;;;;5053871;28;20041;-87
2020/12/29 00:26:28;;;;;;;0.00;0.00;;;3.30;99.90;;;;;;5053799;28;20056;-87
2020/12/29 00:28:53;;;;;;;0.00;0.00;;;3.20;99.90;;;;;;5070583;28;20389;-87
2020/12/29 00:31:20;;;;;;;0.00;0.00;;;3.20;99.90;;;;;;5088339;28;20036;-87
2020/12/29 00:33:47;;;;;;;1.17;1.17;;;3.20;99.90;;;;;;5053789;28;20056;-87
2020/12/29 00:36:13;;;;;;;0.00;0.00;;;3.10;99.90;;;;;;5053702;28;20046;-87
2020/12/29 00:38:39;;;;;;;0.00;0.00;;;3.10;99.90;;;;;;5053680;28;20127;-87
2020/12/29 00:41:06;;;;;;;0.00;0.00;;;3.00;99.90;;;;;;5070067;28;20040;-87
2020/12/29 00:43:33;;;;;;;0.00;0.00;;;2.90;99.90;;;;;;5053667;28;20060;-87
2020/12/29 00:45:58;;;;;;;0.00;0.00;;;2.90;99.90;;;;;;5053659;28;20048;-87
2020/12/29 00:48:24;;;;;;;0.00;0.00;;;2.80;99.90;;;;;;5053484;28;20052;-87
2020/12/29 00:50:49;;;;;;;0.00;0.00;;;2.70;99.90;;;;;;5067960;28;20043;-87
2020/12/29 00:53:15;;;;;;;0.00;0.00;;;2.70;99.90;;;;;;5057551;28;20131;-86
2020/12/29 00:55:47;;;;;;;0.00;0.00;;;2.60;99.90;;;;;;5069575;28;20028;-86
2020/12/29 00:58:14;;;;;;;0.00;0.00;;;2.60;99.90;;;;;;5053413;28;20032;-86
2020/12/29 01:00:39;;;;;;;2.47;2.25;;;2.60;99.90;;;;;;5053011;28;20032;-86
2020/12/29 01:03:05;;;;;;;0.00;0.00;;;2.40;99.90;;;;;;5068777;28;20424;-85
2020/12/29 01:05:31;;;;;;;0.45;0.45;;;2.40;99.90;;;;;;5069649;28;20067;-86
2020/12/29 01:08:00;;;;;;;0.00;0.00;;;2.30;99.90;;;;;;5069471;28;20044;-86
2020/12/29 01:10:27;;;;;;;0.00;0.00;;;2.30;99.90;;;;;;5069795;28;20506;-86
2020/12/29 01:13:13;;;;;;;0.00;0.00;;;2.20;99.90;;;;;;5072451;28;20451;-86
2020/12/29 01:15:41;;;;;;;0.50;0.47;;;2.20;99.90;;;;;;5069763;28;20032;-86
2020/12/29 01:18:07;;;;;;;0.00;0.00;;;2.10;99.90;;;;;;5069575;28;20113;-86
2020/12/29 01:20:33;;;;;;;0.00;0.00;;;2.10;99.90;;;;;;5069380;28;20105;-87
2020/12/29 01:22:58;;;;;;;0.60;0.28;;;2.10;99.90;;;;;;5069348;28;20100;-86
2020/12/29 01:25:24;;;;;;;0.00;0.00;;;2.10;99.90;;;;;;5069180;28;20056;-86
2020/12/29 01:27:50;;;;;;;0.63;0.47;;;2.10;99.90;;;;;;5085895;28;20041;-86
2020/12/29 01:30:16;;;;;;;0.00;0.00;;;2.10;99.90;;;;;;5049653;28;20067;-86
2020/12/29 01:32:43;;;;;;;0.00;0.00;;;2.00;99.90;;;;;;5048976;28;20488;-86
2020/12/29 01:35:09;;;;;;;0.32;0.32;;;2.00;99.90;;;;;;5048959;28;20386;-86
2020/12/29 01:37:35;;;;;;;0.00;0.00;;;2.00;99.90;;;;;;5067247;28;20403;-86
2020/12/29 01:40:03;;;;;;;1.35;0.93;;;2.00;99.90;;;;;;5068879;28;20112;-86
2020/12/29 01:42:28;;;;;;;0.00;0.00;;;2.10;99.90;;;;;;5069158;28;20063;-86
2020/12/29 01:44:54;;;;;;;0.00;0.00;;;2.10;99.90;;;;;;5068999;28;20484;-88
2020/12/29 01:47:21;;;;;;;0.00;0.00;;;2.20;99.90;;;;;;5052205;28;20053;-87
2020/12/29 01:49:47;;;;;;;0.00;0.00;;;2.30;99.90;;;;;;5068829;28;20036;-87
2020/12/29 01:52:13;;;;;;;0.00;0.00;;;2.40;99.90;;;;;;5055084;28;20037;-87
2020/12/29 01:54:40;;;;;;;0.00;0.00;;;2.40;99.90;;;;;;5048803;28;20393;-87
2020/12/29 01:57:06;;;;;;;0.00;0.00;;;2.50;99.90;;;;;;5032304;28;20048;-87
2020/12/29 01:59:32;;;;;;;0.00;0.00;;;2.40;99.90;;;;;;5048918;28;20037;-87
2020/12/29 02:01:58;;;;;;;0.00;0.00;;;2.40;99.90;;;;;;5058079;28;20033;-87
2020/12/29 02:04:24;;;;;;;0.00;0.00;;;2.40;99.90;;;;;;5052204;28;20375;-88
2020/12/29 02:06:51;;;;;;;0.00;0.00;;;2.40;99.90;;;;;;5052046;28;20037;-87
2020/12/29 02:09:16;;;;;;;0.00;0.00;;;2.40;99.90;;;;;;5052001;28;20056;-87
2020/12/29 02:11:42;;;;;;;0.00;0.00;;;2.40;99.90;;;;;;5068672;28;20040;-86
2020/12/29 02:14:08;;;;;;;0.00;0.00;;;2.40;99.90;;;;;;5052157;28;20072;-86
2020/12/29 02:16:42;;;;;;;0.00;0.00;;;2.40;99.90;;;;;;5085419;28;20071;-86
2020/12/29 02:19:08;;;;;;;0.00;0.00;;;2.40;99.90;;;;;;5051481;28;20036;-87
2020/12/29 02:21:35;;;;;;;0.00;0.00;;;2.40;99.90;;;;;;5084680;28;20051;-87
2020/12/29 02:24:02;;;;;;;0.00;0.00;;;2.40;99.90;;;;;;5068534;28;20032;-87
2020/12/29 02:26:31;;;;;;;0.00;0.00;;;2.40;99.90;;;;;;5068242;28;20044;-88
2020/12/29 02:29:01;;;;;;;4.70;1.35;;;2.30;99.90;;;;;;5051694;28;20068;-88
2020/12/29 02:31:27;;;;;;;0.00;0.00;;;2.30;99.90;;;;;;5051822;28;20412;-87
2020/12/29 02:33:54;;;;;;;0.00;0.00;;;2.20;99.90;;;;;;5051425;28;20040;-87
2020/12/29 02:36:19;;;;;;;1.98;1.65;;;2.30;99.90;;;;;;5051609;28;20033;-87
2020/12/29 02:38:45;;;;;;;4.90;2.13;;;2.30;99.90;;;;;;5051948;28;20485;-87
2020/12/29 02:41:18;;;;;;;0.00;0.00;;;2.30;99.90;;;;;;5051522;28;20037;-87
2020/12/29 02:43:44;;;;;;;0.00;0.00;;;2.40;99.90;;;;;;5051477;28;20075;-87
2020/12/29 02:46:12;;;;;;;0.00;0.00;;;2.30;99.90;;;;;;5051348;28;20040;-87
2020/12/29 02:48:38;;;;;;;0.00;0.00;;;2.30;99.90;;;;;;5084860;28;20071;-87
2020/12/29 02:51:03;;;;;;;0.00;0.00;;;2.30;99.90;;;;;;5068218;28;20029;-87
2020/12/29 02:53:29;;;;;;;0.00;0.00;;;2.30;99.90;;;;;;5051662;28;20063;-87
2020/12/29 02:55:55;;;;;;;0.00;0.00;;;2.30;99.90;;;;;;5051367;28;20075;-87
2020/12/29 02:58:20;;;;;;;0.00;0.00;;;2.30;99.90;;;;;;5051338;28;20045;-86
2020/12/29 03:00:46;;;;;;;0.00;0.00;;;2.30;99.90;;;;;;5051138;28;20036;-87
2020/12/29 03:03:12;;;;;;;0.00;0.00;;;2.30;99.90;;;;;;5031101;28;20140;-86
2020/12/29 03:05:37;;;;;;;0.00;0.00;;;2.30;99.90;;;;;;5047997;28;20044;-87
2020/12/29 03:08:03;;;;;;;0.00;0.00;;;2.30;99.90;;;;;;5047831;28;20140;-86
2020/12/29 03:10:29;;;;;;;0.00;0.00;;;2.30;99.90;;;;;;5047853;28;20041;-87
2020/12/29 03:12:54;;;;;;;2.83;2.63;;;2.30;99.90;;;;;;5064342;28;20041;-87
2020/12/29 03:15:20;;;;;;;0.00;0.00;;;2.30;99.90;;;;;;5047988;28;20041;-87
2020/12/29 03:17:45;;;;;;;0.00;0.00;;;2.40;99.90;;;;;;5047719;28;20045;-87
2020/12/29 03:20:11;;;;;;;0.00;0.00;;;2.40;99.90;;;;;;5047892;28;20035;-87
2020/12/29 03:22:36;;;;;;;0.00;0.00;;;2.40;99.90;;;;;;5047758;28;20095;-88
2020/12/29 03:25:02;;;;;;;0.00;0.00;;;2.40;99.90;;;;;;5047699;28;20043;-87
2020/12/29 03:27:28;;;;;;;0.00;0.00;;;2.40;99.90;;;;;;5047602;28;20300;-87
2020/12/29 03:29:54;;;;;;;0.00;0.00;;;2.40;99.90;;;;;;5047609;28;20052;-87
2020/12/29 03:32:19;;;;;;;0.00;0.00;;;2.40;99.90;;;;;;5050692;28;20037;-87
2020/12/29 03:34:45;;;;;;;0.00;0.00;;;2.40;99.90;;;;;;5051535;28;20112;-87
2020/12/29 03:37:11;;;;;;;0.22;0.22;;;2.40;99.90;;;;;;5051386;28;20147;-87
2020/12/29 03:39:38;;;;;;;0.00;0.00;;;2.40;99.90;;;;;;5051448;28;20037;-88
2020/12/29 03:42:04;;;;;;;0.00;0.00;;;2.40;99.90;;;;;;5067676;28;20037;-87
2020/12/29 03:44:30;;;;;;;0.00;0.00;;;2.40;99.90;;;;;;5051380;28;20064;-86
2020/12/29 03:46:56;;;;;;;0.65;0.65;;;2.50;99.90;;;;;;5051647;28;20497;-87
2020/12/29 03:49:22;;;;;;;0.00;0.00;;;2.50;99.90;;;;;;5067719;28;20052;-86
2020/12/29 03:51:47;;;;;;;0.00;0.00;;;2.50;99.90;;;;;;5061147;28;20472;-87
2020/12/29 03:54:13;;;;;;;0.00;0.00;;;2.50;99.90;;;;;;5071040;28;20070;-86
2020/12/29 03:56:39;;;;;;;0.00;0.00;;;2.50;99.90;;;;;;5071113;28;20059;-86
2020/12/29 03:59:04;;;;;;;0.00;0.00;;;2.40;99.90;;;;;;5087948;28;20495;-87
2020/12/29 04:01:30;;;;;;;0.00;0.00;;;2.50;99.90;;;;;;5070965;28;20064;-87
2020/12/29 04:03:56;;;;;;;0.00;0.00;;;2.50;99.90;;;;;;5054718;28;20055;-86
2020/12/29 04:06:21;;;;;;;0.00;0.00;;;2.50;99.90;;;;;;5054202;28;20090;-87
2020/12/29 04:08:47;;;;;;;0.00;0.00;;;2.50;99.90;;;;;;5054347;28;20049;-87
2020/12/29 04:11:13;;;;;;;0.00;0.00;;;2.50;99.90;;;;;;5054274;28;20032;-86
2020/12/29 04:13:40;;;;;;;0.00;0.00;;;2.50;99.90;;;;;;5054353;28;20047;-87
2020/12/29 04:16:06;;;;;;;0.00;0.00;;;2.50;99.90;;;;;;5054354;28;20047;-88
2020/12/29 04:18:31;;;;;;;0.00;0.00;;;2.50;99.90;;;;;;5054332;28;20096;-87
2020/12/29 04:20:57;;;;;;;0.55;0.55;;;2.50;99.90;;;;;;5054068;28;20052;-87
2020/12/29 04:23:23;;;;;;;0.00;0.00;;;2.50;99.90;;;;;;5053960;28;20048;-87
2020/12/29 04:25:48;;;;;;;1.20;1.17;;;2.50;99.90;;;;;;5053692;28;20032;-86
2020/12/29 04:28:14;;;;;;;0.00;0.00;;;2.50;99.90;;;;;;5054305;28;20045;-87
2020/12/29 04:30:40;;;;;;;0.00;0.00;;;2.50;99.90;;;;;;5054096;28;20032;-87
2020/12/29 04:33:05;;;;;;;0.00;0.00;;;2.50;99.90;;;;;;5053816;28;20044;-87
2020/12/29 04:35:31;;;;;;;0.00;0.00;;;2.50;99.90;;;;;;5053908;28;20106;-87
2020/12/29 04:37:56;;;;;;;0.00;0.00;;;2.50;99.90;;;;;;5053703;28;20410;-86
2020/12/29 04:40:22;;;;;;;0.00;0.00;;;2.50;99.90;;;;;;5053855;28;20040;-87
2020/12/29 04:42:48;;;;;;;0.15;0.15;;;2.50;99.90;;;;;;5069641;28;20495;-86
2020/12/29 04:45:14;;;;;;;0.00;0.00;;;2.50;99.90;;;;;;5070606;28;20047;-86
2020/12/29 04:47:40;;;;;;;0.47;0.47;;;2.50;99.90;;;;;;5070066;28;20103;-86
2020/12/29 04:50:06;;;;;;;0.00;0.00;;;2.60;99.90;;;;;;5070152;28;20048;-87
2020/12/29 04:52:32;;;;;;;0.00;0.00;;;2.60;99.90;;;;;;5053425;28;20091;-86
2020/12/29 04:54:59;;;;;;;0.00;0.00;;;2.60;99.90;;;;;;5070221;28;20033;-86
2020/12/29 04:57:25;;;;;;;0.00;0.00;;;2.60;99.90;;;;;;5069999;28;20044;-86
2020/12/29 04:59:52;;;;;;;0.00;0.00;;;2.60;99.90;;;;;;5053377;28;20047;-86
2020/12/29 05:02:18;;;;;;;0.00;0.00;;;2.60;99.90;;;;;;5049239;28;20052;-86
2020/12/29 05:04:44;;;;;;;0.00;0.00;;;2.60;99.90;;;;;;5029955;28;20417;-86
2020/12/29 05:07:10;;;;;;;0.65;0.65;;;2.60;99.90;;;;;;5046364;28;20041;-87
2020/12/29 05:09:36;;;;;;;0.00;0.00;;;2.60;99.90;;;;;;5029852;28;20124;-86
2020/12/29 05:12:02;;;;;;;0.00;0.00;;;2.60;99.90;;;;;;5029775;28;20048;-87
2020/12/29 05:14:28;;;;;;;0.00;0.00;;;2.60;99.90;;;;;;5029729;28;20037;-87
2020/12/29 05:16:55;;;;;;;0.00;0.00;;;2.60;99.90;;;;;;5029571;28;20044;-86
2020/12/29 05:19:22;;;;;;;0.00;0.00;;;2.60;99.90;;;;;;5029824;28;20482;-86
2020/12/29 05:21:48;;;;;;;0.00;0.00;;;2.60;99.90;;;;;;5029707;28;20041;-86
2020/12/29 05:24:21;;;;;;;0.00;0.00;;;2.60;99.90;;;;;;5029236;28;20124;-86
2020/12/29 05:26:58;;;;;;;0.00;0.00;;;2.60;99.90;;;;;;5029542;28;20147;-87
2020/12/29 05:29:25;;;;;;;0.00;0.00;;;2.70;99.90;;;;;;5029533;28;20072;-87
2020/12/29 05:31:51;;;;;;;0.00;0.00;;;2.60;99.90;;;;;;5029363;28;20046;-86
2020/12/29 05:34:22;;;;;;;0.00;0.00;;;2.60;99.90;;;;;;5029387;28;20065;-86
2020/12/29 05:36:49;;;;;;;0.00;0.00;;;2.60;99.90;;;;;;5029204;28;20037;-87
2020/12/29 05:39:15;;;;;;;0.00;0.00;;;2.70;99.90;;;;;;5029214;28;20120;-87
2020/12/29 05:41:49;;;;;;;0.00;0.00;;;2.70;99.90;;;;;;5029433;28;20034;-87
2020/12/29 05:44:27;;;;;;;0.00;0.00;;;2.70;99.90;;;;;;5029152;28;20045;-86
2020/12/29 05:46:54;;;;;;;5.97;5.38;;;2.70;99.90;;;;;;5029181;28;20041;-87
2020/12/29 05:49:20;;;;;;;0.00;0.00;;;2.70;99.90;;;;;;5029172;28;20148;-87
2020/12/29 05:51:48;;;;;;;0.00;0.00;;;2.80;99.90;;;;;;5032112;28;20037;-88
2020/12/29 05:54:15;;;;;;;0.52;0.30;;;2.80;99.90;;;;;;5032345;28;20040;-86
2020/12/29 05:56:41;;;;;;;0.00;0.00;;;2.80;99.90;;;;;;5032385;28;20029;-87
2020/12/29 05:59:07;;;;;;;0.00;0.00;;;2.80;99.90;;;;;;5032499;28;20064;-86
2020/12/29 06:01:44;;;;;;;0.00;0.00;;;2.80;99.90;;;;;;5031870;28;20041;-86
2020/12/29 06:04:11;;;;;;;0.00;0.00;;;2.80;99.90;;;;;;5068916;28;20071;-86
2020/12/29 06:06:40;;;;;;;0.00;0.00;;;2.80;99.90;;;;;;5068661;28;20104;-86
2020/12/29 06:09:10;;;;;;;0.00;0.00;;;2.80;99.90;;;;;;5068688;28;20075;-87
2020/12/29 06:11:39;;;;;;;0.00;0.00;;;2.80;99.90;;;;;;5068773;28;20041;-87
2020/12/29 06:14:11;;;;;;;0.00;0.00;;;2.80;99.90;;;;;;5068630;28;20070;-87
2020/12/29 06:16:39;;;;;;;0.47;0.47;;;2.80;99.90;;;;;;5068580;28;20048;-86
2020/12/29 06:19:28;;;;;;;0.00;0.00;;;2.90;99.90;;;;;;5068854;28;20043;-88
2020/12/29 06:22:03;;;;;;;0.00;0.00;;;2.90;99.90;;;;;;5068665;28;20108;-86
2020/12/29 06:24:32;;;;;;;0.00;0.00;;;2.90;99.90;;;;;;5068480;28;20043;-87
2020/12/29 06:27:03;;;;;;;0.95;0.95;;;2.90;99.90;;;;;;5068508;28;20036;-86
2020/12/29 06:29:32;;;;;;;6.80;6.35;;;2.90;99.90;;;;;;5069403;28;20063;-86
2020/12/29 06:32:02;;;;;;;0.00;0.00;;;2.90;99.90;;;;;;5069061;28;20029;-86
2020/12/29 06:34:29;;;;;;;;;;;2.90;99.90;;;;;;5079209;28;20040;-86
2020/12/29 06:36:56;;;;;;;0.20;0.20;;;2.90;99.90;;;;;;5051645;28;19913;-86
2020/12/29 06:39:22;;;;;;;0.00;0.00;;;2.90;99.90;;;;;;5067949;28;20052;-86
2020/12/29 06:41:49;;;;;;;2.50;2.35;;;2.90;99.90;;;;;;5068248;28;20041;-87
2020/12/29 06:44:15;;;;;;;0.00;0.00;;;2.90;99.90;;;;;;5051403;28;20040;-87
2020/12/29 06:46:40;;;;;;;0.00;0.00;;;3.00;99.90;;;;;;5068071;28;20040;-86
2020/12/29 06:49:20;;;;;;;0.00;0.00;;;2.90;99.90;;;;;;5068126;28;20136;-86
2020/12/29 06:51:47;;;;;;;0.00;0.00;;;2.90;99.90;;;;;;5068029;28;20032;-86
2020/12/29 06:54:46;;;;;;;0.00;0.00;;;2.90;99.90;;;;;;5051184;28;20041;-85
2020/12/29 06:57:11;;;;;;;0.00;0.00;;;2.90;99.90;;;;;;5051371;28;20060;-87
2020/12/29 06:59:39;;;;;;;0.00;0.00;;;3.00;99.90;;;;;;5051408;28;20059;-87
2020/12/29 07:02:13;;;;;;;0.00;0.00;;;2.90;99.90;;;;;;5075082;28;20441;-87
2020/12/29 07:04:50;;;;;;;0.00;0.00;;;2.90;99.90;;;;;;5051022;28;20036;-87
2020/12/29 07:07:32;;;;;;;0.00;0.00;;;2.90;99.90;;;;;;5070643;28;20044;-87
2020/12/29 07:10:08;;;;;;;0.00;0.00;;;2.90;99.90;;;;;;5071574;28;20047;-86
2020/12/29 07:12:34;;;;;;;0.00;0.00;;;2.90;99.90;;;;;;5072085;28;20500;-87
2020/12/29 07:15:03;;;;;;;1.30;1.25;;;2.90;99.90;;;;;;5071956;28;20079;-86
2020/12/29 07:17:30;;;;;;;0.13;0.13;;;2.90;99.90;;;;;;5071988;28;20112;-87
2020/12/29 07:19:56;;;;;;;0.00;0.00;;;2.90;99.90;;;;;;5055023;28;20064;-87
2020/12/29 07:22:23;;;;;;;0.00;0.00;;;2.90;99.90;;;;;;5052960;28;20531;-87
2020/12/29 07:24:49;;;;;;;0.00;0.00;;;2.90;99.90;;;;;;5054644;28;20067;-87
2020/12/29 07:27:15;;;;;;;0.00;0.00;;;2.90;99.90;;;;;;5071408;28;20037;-87
2020/12/29 07:29:51;;;;;;;0.65;0.35;;;2.90;99.90;;;;;;5054852;28;20143;-87
2020/12/29 07:32:17;;;;;;;0.00;0.00;;;2.90;99.90;;;;;;5055038;28;20044;-86
2020/12/29 07:34:46;;;;;;;1.08;1.08;;;2.90;99.90;;;;;;5054819;28;20036;-87
2020/12/29 07:37:15;;;;;;;0.00;0.00;;;2.90;99.90;;;;;;5054378;28;20124;-87
2020/12/29 07:39:43;;;;;;;0.00;0.00;;;3.00;99.90;;;;;;5055468;28;20036;-87
2020/12/29 07:42:09;;;;;;;1.27;1.27;;;3.00;99.90;;;;;;5057499;28;20059;-87
2020/12/29 07:44:35;;;;;;;0.00;0.00;;;3.00;99.90;;;;;;5069686;28;20053;-87
2020/12/29 07:47:00;;;;;;;0.00;0.00;;;3.00;99.90;;;;;;5051687;28;20029;-86
2020/12/29 07:49:28;;;;;;;0.00;0.00;;;3.10;99.90;;;;;;5051332;28;20041;-87
2020/12/29 07:51:53;;;;;;;0.75;0.10;;;3.10;99.90;;;;;;5051361;28;20059;-87
2020/12/29 07:54:19;;;;;;;0.00;0.00;;;3.20;99.90;;;;;;5067805;28;20049;-86
2020/12/29 07:56:45;;;;;;;1.65;1.65;;;3.20;99.90;;;;;;5051362;28;20064;-87
2020/12/29 07:59:10;;;;;;;0.00;0.00;;;3.20;99.90;;;;;;5051195;28;20037;-86
2020/12/29 08:01:55;;;;;;;0.10;0.10;;;3.30;99.90;;;;;;5057132;28;20393;-87
2020/12/29 08:04:31;;;;;;;1.00;1.00;;;3.30;99.90;;;;;;5070892;28;20060;-87
2020/12/29 08:06:58;;;;;;;0.00;0.00;;;3.30;99.90;;;;;;5088725;28;20044;-87
2020/12/29 08:09:25;;;;;;;2.95;2.85;;;3.30;99.90;;;;;;5054426;28;20137;-90
2020/12/29 08:11:51;;;;;;;0.00;0.00;;;3.30;99.90;;;;;;5070897;28;20033;-86
2020/12/29 08:14:17;;;;;;;1.75;1.75;;;3.40;99.90;;;;;;5054732;28;20055;-87
2020/12/29 08:16:42;;;;;;;0.00;0.00;;;3.30;99.90;;;;;;5070735;28;20032;-87
2020/12/29 08:19:11;;;;;;;0.30;0.30;;;3.40;99.90;;;;;;5069590;28;20036;-87
2020/12/29 08:21:40;;;;;;;1.10;1.05;;;3.40;99.90;;;;;;5062933;28;20036;-87
2020/12/29 08:24:07;;;;;;;0.10;0.10;;;3.40;99.90;;;;;;5044488;28;20044;-86
2020/12/29 08:26:33;;;;;;;0.00;0.00;;;3.40;99.90;;;;;;5061337;28;20272;-86
2020/12/29 08:29:00;;;;;;;0.00;0.00;;;3.50;99.90;;;;;;5045598;28;20049;-87
2020/12/29 08:31:27;;;;;;;0.00;0.00;;;3.50;99.90;;;;;;5060180;28;20037;-87
2020/12/29 08:33:55;;;;;;;0.00;0.00;;;3.50;99.90;;;;;;5061233;28;20040;-86
2020/12/29 08:36:22;;;;;;;0.00;0.00;;;3.50;99.90;;;;;;5061212;28;20095;-86
2020/12/29 08:39:00;;;;;;;0.00;0.00;;;3.50;99.90;;;;;;5067078;28;20041;-85
2020/12/29 08:41:30;;;;;;;7.00;1.27;;;3.50;99.90;;;;;;5052719;28;20063;-83
2020/12/29 08:44:00;;;;;;;0.00;0.00;;;3.60;99.90;;;;;;5061760;28;20063;-86
2020/12/29 08:46:26;;;;;;;0.00;0.00;;;3.60;99.90;;;;;;5050639;28;20045;-84
2020/12/29 08:48:53;;;;;;;0.00;0.00;;;3.60;99.90;;;;;;5052718;28;20117;-85
2020/12/29 08:51:25;;;;;;;1.77;1.00;;;3.60;99.90;;;;;;5049689;28;20033;-84
2020/12/29 08:54:14;;;;;;;0.13;0.13;;;3.50;99.90;;;;;;5052085;28;20032;-83
2020/12/29 08:56:42;;;;;;;0.00;0.00;;;3.50;99.90;;;;;;4993818;28;20034;-85
2020/12/29 08:59:11;;;;;;;0.05;0.05;;;3.50;99.90;;;;;;5001684;28;20033;-83
2020/12/29 09:01:40;;;;;;;0.00;0.00;;;3.40;99.90;;;;;;4989239;28;20045;-84
2020/12/29 09:04:36;;;;;;;1.67;0.68;;;3.40;99.90;;;;;;4983765;28;20051;-84
2020/12/29 09:07:14;;;;;;;0.00;0.00;;;3.40;99.90;;;;;;5004497;28;20052;-83
2020/12/29 09:09:52;;;;;;;0.00;0.00;;;3.30;99.90;;;;;;4987461;28;20054;-85
2020/12/29 09:12:19;;;;;;;1.55;0.75;;;3.40;99.90;;;;;;5002064;28;20035;-84
2020/12/29 09:15:07;;;;;;;0.00;0.00;;;3.30;99.90;;;;;;4979420;28;20042;-84
2020/12/29 09:17:40;;;;;;;0.47;0.47;;;3.30;99.90;;;;;;4991661;28;20451;-83
2020/12/29 09:20:41;;;;;;;0.47;0.47;;;3.30;99.90;;;;;;4971951;28;20127;-83
2020/12/29 09:23:11;;;;;;;1.85;0.55;;;3.20;99.90;;;;;;5002048;28;20034;-83
2020/12/29 09:25:42;;;;;;;1.73;0.57;;;3.20;99.90;;;;;;4977042;28;20038;-84
2020/12/29 09:28:15;;;;;;;0.22;0.22;;;3.20;99.90;;;;;;4974288;28;20070;-83
2020/12/29 09:30:46;;;;;;;0.00;0.00;;;3.20;99.90;;;;;;4958428;28;20042;-84
2020/12/29 09:33:29;;;;;;;;;;;;;;;;;;;;;
2020/12/29 09:35:59;;;;;;;0.00;0.00;;;3.30;99.90;;;;;;5035975;28;20069;-83
2020/12/29 09:38:25;;;;;;;0.00;0.00;;;3.20;99.90;;;;;;5017019;28;20069;-84
2020/12/29 09:40:52;;;;;;;0.45;0.45;;;3.20;99.90;;;;;;5006225;28;20116;-85
2020/12/29 09:43:18;;;;;;;0.00;0.00;;;3.20;99.90;;;;;;5018850;28;20057;-85
2020/12/29 09:45:45;;;;;;;0.32;0.32;;;3.20;99.90;;;;;;5008097;28;20140;-84
2020/12/29 09:48:14;;;;;;;0.00;0.00;;;3.20;99.90;;;;;;5000815;28;20033;-84
2020/12/29 09:50:40;;;;;;;1.20;0.60;;;3.20;99.90;;;;;;5033622;28;20045;-83
2020/12/29 09:53:06;;;;;;;0.65;0.65;;;3.20;99.90;;;;;;5020026;28;20059;-82
2020/12/29 09:55:32;;;;;;;0.05;0.05;;;3.20;99.90;;;;;;5002423;28;20512;-83
2020/12/29 09:57:57;;;;;;;0.00;0.00;;;3.20;99.90;;;;;;5021842;28;20127;-85
2020/12/29 10:00:23;;;;;;;0.00;0.00;;;3.30;99.90;;;;;;5040445;28;20041;-85
2020/12/29 10:02:49;;;;;;;3.70;0.63;;;3.30;99.90;;;;;;5041572;28;20036;-85
2020/12/29 10:05:15;;;;;;;0.00;0.00;;;3.30;99.90;;;;;;5055755;28;20041;-85
2020/12/29 10:07:44;;;;;;;0.00;0.00;;;3.30;99.90;;;;;;5072019;28;20037;-85
2020/12/29 10:10:10;;;;;;;0.00;0.00;;;3.30;99.90;;;;;;5063350;28;20033;-86
2020/12/29 10:12:35;;;;;;;0.10;0.00;;;3.30;99.90;;;;;;5045623;28;20044;-85
2020/12/29 10:15:01;;;;;;;0.00;0.00;;;3.30;99.90;;;;;;5062167;28;20036;-83
2020/12/29 10:17:27;;;;;;;1.30;0.70;;;3.30;99.90;;;;;;5049217;28;20036;-84
2020/12/29 10:19:56;;;;;;;0.20;0.20;;;3.30;99.90;;;;;;5054300;28;20064;-85
2020/12/29 10:22:22;;;;;;;0.75;0.75;;;3.30;99.90;;;;;;5053688;28;20032;-86
2020/12/29 10:24:47;;;;;;;1.75;0.63;;;3.40;99.90;;;;;;5066354;28;20100;-83
2020/12/29 10:27:13;;;;;;;0.00;0.00;;;3.30;99.90;;;;;;5068019;28;20094;-84
2020/12/29 10:29:39;;;;;;;0.00;0.00;;;3.40;99.90;;;;;;5061449;28;20044;-84
2020/12/29 10:32:05;;;;;;;0.45;0.32;;;3.40;99.90;;;;;;5063113;28;20047;-85
2020/12/29 10:34:30;;;;;;;0.55;0.55;;;3.40;99.90;;;;;;5054100;28;20047;-84
2020/12/29 10:36:56;;;;;;;0.00;0.00;;;3.40;99.90;;;;;;5055826;28;20041;-84
2020/12/29 10:39:21;;;;;;;0.00;0.00;;;3.40;99.90;;;;;;5064032;28;20040;-85
2020/12/29 10:41:47;;;;;;;0.00;0.00;;;3.50;99.90;;;;;;5086667;28;20032;-85
2020/12/29 10:44:14;;;;;;;0.00;0.00;;;3.50;99.90;;;;;;5050270;28;20064;-86
2020/12/29 10:46:44;;;;;;;0.00;0.00;;;3.50;99.90;;;;;;5073561;28;20060;-86
2020/12/29 10:49:10;;;;;;;0.00;0.00;;;3.50;99.90;;;;;;5077143;28;20076;-85
2020/12/29 10:51:35;;;;;;;3.10;2.72;;;3.50;99.90;;;;;;5053568;28;20036;-84
2020/12/29 10:57:20;;;;;;;0.00;0.00;;;3.60;99.90;;;;;;5036809;28;20119;-83
2020/12/29 10:59:48;;;;;;;0.00;0.00;;;3.60;99.90;;;;;;5025813;28;20492;-83
2020/12/29 11:02:13;;;;;;;0.00;0.00;;;3.60;99.90;;;;;;5028179;28;20061;-83
2020/12/29 11:04:40;;;;;;;0.25;0.25;;;3.60;99.90;;;;;;5030897;28;20042;-85
2020/12/29 11:07:05;;;;;;;0.52;0.00;;;3.60;99.90;;;;;;5043394;28;20033;-84
2020/12/29 11:09:31;;;;;;;0.00;0.00;;;3.60;99.90;;;;;;5027519;28;20084;-85
2020/12/29 11:12:03;;;;;;;0.00;0.00;;;3.60;99.90;;;;;;5030125;28;20045;-83
2020/12/29 11:14:28;;;;;;;0.00;0.00;;;3.60;99.90;;;;;;5044519;28;20077;-85
2020/12/29 11:16:54;;;;;;;0.55;0.00;;;3.60;99.90;;;;;;5050384;28;20049;-83
2020/12/29 11:19:20;;;;;;;0.00;0.00;;;3.60;99.90;;;;;;5026560;28;20041;-84
2020/12/29 11:21:46;;;;;;;0.00;0.00;;;3.60;99.90;;;;;;5026548;28;20030;-84
2020/12/29 11:24:16;;;;;;;0.00;0.00;;;3.70;99.90;;;;;;5043106;28;20061;-85
2020/12/29 11:26:42;;;;;;;0.00;0.00;;;3.70;99.90;;;;;;5030628;28;20041;-85
2020/12/29 11:29:10;;;;;;;0.00;0.00;;;3.70;99.90;;;;;;5041762;28;20143;-84
2020/12/29 11:31:36;;;;;;;0.05;0.05;;;3.80;99.90;;;;;;5030512;28;20071;-85
2020/12/29 11:34:02;;;;;;;0.00;0.00;;;3.80;99.90;;;;;;5043399;28;20038;-84
2020/12/29 11:36:27;;;;;;;0.03;0.03;;;3.80;99.90;;;;;;5028353;28;20045;-83
2020/12/29 11:38:53;;;;;;;0.00;0.00;;;3.80;99.90;;;;;;5027945;28;20482;-84
2020/12/29 11:41:18;;;;;;;0.00;0.00;;;3.80;99.90;;;;;;5047066;28;20036;-83
2020/12/29 11:43:46;;;;;;;0.00;0.00;;;3.80;99.90;;;;;;5046916;28;20037;-84
2020/12/29 11:46:12;;;;;;;0.00;0.00;;;3.80;99.90;;;;;;5034417;28;20037;-85
2020/12/29 11:48:37;;;;;;;0.32;0.32;;;3.80;99.90;;;;;;5030505;28;20548;-85
2020/12/29 11:51:07;;;;;;;0.00;0.00;;;3.80;99.90;;;;;;5043145;28;20037;-86
2020/12/29 11:53:33;;;;;;;0.00;0.00;;;3.80;99.90;;;;;;5045973;28;20511;-84
2020/12/29 11:56:11;;;;;;;0.00;0.00;;;3.80;99.90;;;;;;5029650;28;20045;-86
2020/12/29 11:58:40;;;;;;;0.00;0.00;;;3.90;99.90;;;;;;5046215;28;20046;-84
2020/12/29 12:01:06;;;;;;;0.10;0.10;;;3.90;99.90;;;;;;5045894;28;20060;-85
2020/12/29 12:03:32;;;;;;;0.00;0.00;;;4.00;99.90;;;;;;5044755;28;20049;-85
2020/12/29 12:05:58;;;;;;;0.00;0.00;;;4.10;99.90;;;;;;5030490;28;20065;-85
2020/12/29 12:08:24;;;;;;;0.00;0.00;;;4.10;99.90;;;;;;5028832;28;20071;-85
2020/12/29 12:10:50;;;;;;;0.00;0.00;;;4.10;99.90;;;;;;5046056;28;20037;-86
2020/12/29 12:13:16;;;;;;;0.65;0.65;;;4.20;99.90;;;;;;5029898;28;20041;-85
2020/12/29 12:15:46;;;;;;;0.00;0.00;;;4.20;99.90;;;;;;5030287;28;20124;-85
2020/12/29 12:18:22;;;;;;;0.00;0.00;;;4.20;99.90;;;;;;5046970;28;20109;-85
2020/12/29 12:20:49;;;;;;;0.00;0.00;;;4.20;99.90;;;;;;5036608;28;20121;-85
2020/12/29 12:23:15;;;;;;;0.00;0.00;;;4.30;99.90;;;;;;5013574;28;20547;-85
2020/12/29 12:25:40;;;;;;;0.00;0.00;;;4.30;99.90;;;;;;5012929;28;20105;-85
2020/12/29 12:28:06;;;;;;;0.15;0.10;;;4.30;99.90;;;;;;5030038;28;20073;-84
2020/12/29 12:30:32;;;;;;;0.30;0.30;;;4.40;99.90;;;;;;5012811;28;20038;-85
2020/12/29 12:32:57;;;;;;;0.00;0.00;;;4.60;99.90;;;;;;5014175;28;20045;-85
2020/12/29 12:35:23;;;;;;;0.22;0.20;;;4.60;99.90;;;;;;5013937;28;20037;-82
2020/12/29 12:37:48;;;;;;;0.00;0.00;;;4.60;99.90;;;;;;5029759;28;20096;-84
2020/12/29 12:40:14;;;;;;;0.00;0.00;;;4.60;99.90;;;;;;5029529;28;20037;-85
2020/12/29 12:42:40;;;;;;;0.38;0.38;;;4.60;99.90;;;;;;5030637;28;20094;-85
2020/12/29 12:45:05;;;;;;;0.00;0.00;;;4.60;99.90;;;;;;5012581;28;20061;-84
2020/12/29 12:47:31;;;;;;;0.00;0.00;;;4.60;99.90;;;;;;5030569;28;20022;-84
2020/12/29 12:49:56;;;;;;;0.10;0.10;;;4.60;99.90;;;;;;5029556;28;20506;-85
2020/12/29 12:52:22;;;;;;;0.00;0.00;;;4.50;99.90;;;;;;5028837;28;20041;-86
2020/12/29 12:54:48;;;;;;;0.82;0.38;;;4.50;99.90;;;;;;5014425;28;20048;-85
2020/12/29 12:57:13;;;;;;;0.00;0.00;;;4.50;99.90;;;;;;5003933;28;20675;-86
2020/12/29 12:59:39;;;;;;;0.00;0.00;;;4.50;99.90;;;;;;5013753;28;20033;-87
2020/12/29 13:02:04;;;;;;;0.00;0.00;;;4.50;99.90;;;;;;5014444;28;20077;-84
2020/12/29 13:04:30;;;;;;;0.00;0.00;;;4.50;99.90;;;;;;5013101;28;20041;-85